createdAt,value
2023-01-07T00:01:40.951Z,2.90
2023-01-07T00:04:12.348Z,3.35
2023-01-07T00:06:42.262Z,3.05
2023-01-07T00:09:14.227Z,2.78
2023-01-07T00:11:41.977Z,2.53
2023-01-07T00:14:12.600Z,2.88
2023-01-07T00:16:40.506Z,3.15
2023-01-07T00:19:12.135Z,2.80
2023-01-07T00:21:38.979Z,3.00
2023-01-07T00:24:07.417Z,2.47
2023-01-07T00:26:37.416Z,3.15
2023-01-07T00:29:06.479Z,3.05
2023-01-07T00:31:37.532Z,3.08
2023-01-07T00:34:05.297Z,2.70
2023-01-07T00:37:12.320Z,3.65
2023-01-07T00:39:41.223Z,3.03
2023-01-07T00:42:26.768Z,3.50
2023-01-07T00:47:20.268Z,3.03
2023-01-07T00:49:47.304Z,2.92
2023-01-07T00:52:14.106Z,3.20
2023-01-07T00:54:41.052Z,3.60
2023-01-07T00:57:13.474Z,3.10
2023-01-07T00:59:40.247Z,2.40
2023-01-07T01:02:07.236Z,2.88
2023-01-07T01:04:34.530Z,2.17
2023-01-07T01:07:01.342Z,2.53
2023-01-07T01:09:28.361Z,2.10
2023-01-07T01:11:55.204Z,1.83
2023-01-07T01:14:22.070Z,1.80
2023-01-07T01:16:49.036Z,2.03
2023-01-07T01:19:16.086Z,2.03
2023-01-07T01:21:43.000Z,1.77
2023-01-07T01:24:10.364Z,1.80
2023-01-07T01:26:37.481Z,1.63
2023-01-07T01:29:04.354Z,1.80
2023-01-07T01:31:31.618Z,1.83
2023-01-07T01:33:59.969Z,2.17
2023-01-07T01:36:27.282Z,1.90
2023-01-07T01:38:54.350Z,1.80
2023-01-07T01:41:21.471Z,2.00
2023-01-07T01:43:48.375Z,1.65
2023-01-07T01:46:40.180Z,1.80
2023-01-07T01:49:22.366Z,2.00
2023-01-07T01:52:10.438Z,2.03
2023-01-07T01:54:38.088Z,2.15
2023-01-07T01:57:07.896Z,2.20
2023-01-07T01:59:41.265Z,2.50
2023-01-07T02:02:09.283Z,2.40
2023-01-07T02:04:37.340Z,2.20
2023-01-07T02:07:17.443Z,2.00
2023-01-07T02:09:45.785Z,2.20
2023-01-07T02:13:09.134Z,2.00
2023-01-07T02:16:09.073Z,2.13
2023-01-07T02:19:09.273Z,2.00
2023-01-07T02:22:00.039Z,1.80
2023-01-07T02:24:47.784Z,2.40
2023-01-07T02:27:14.586Z,2.17
2023-01-07T02:29:50.308Z,2.10
2023-01-07T02:32:47.259Z,2.13
2023-01-07T02:35:40.279Z,2.35
2023-01-07T02:38:36.489Z,2.25
2023-01-07T02:41:24.538Z,2.30
2023-01-07T02:43:51.290Z,1.77
2023-01-07T02:46:29.969Z,2.15
2023-01-07T02:49:10.028Z,2.45
2023-01-07T02:51:40.063Z,2.28
2023-01-07T02:54:14.219Z,2.40
2023-01-07T02:56:59.849Z,2.27
2023-01-07T02:59:49.495Z,2.10
2023-01-07T03:02:42.856Z,2.10
2023-01-07T03:05:48.446Z,2.40
2023-01-07T03:08:58.863Z,2.08
2023-01-07T03:11:33.506Z,2.00
2023-01-07T03:14:24.777Z,1.65
2023-01-07T03:17:00.665Z,2.13
2023-01-07T03:19:38.810Z,1.40
2023-01-07T03:22:09.150Z,1.80
2023-01-07T03:24:36.554Z,1.52
2023-01-07T03:27:06.920Z,1.50
2023-01-07T03:29:35.909Z,1.40
2023-01-07T03:32:18.465Z,1.70
2023-01-07T03:34:45.902Z,1.52
2023-01-07T03:37:18.033Z,1.67
2023-01-07T03:39:46.637Z,1.75
2023-01-07T03:42:33.947Z,1.77
2023-01-07T03:45:01.148Z,1.80
2023-01-07T03:47:29.079Z,1.80
2023-01-07T03:49:56.913Z,1.70
2023-01-07T03:52:24.077Z,2.17
2023-01-07T03:54:50.836Z,2.00
2023-01-07T03:57:17.637Z,1.75
2023-01-07T03:59:44.451Z,1.98
2023-01-07T04:02:11.715Z,1.90
2023-01-07T04:04:38.850Z,1.75
2023-01-07T04:07:05.675Z,2.20
2023-01-07T04:09:32.918Z,2.40
2023-01-07T04:11:59.704Z,1.80
2023-01-07T04:14:26.536Z,1.92
2023-01-07T04:16:53.453Z,1.95
2023-01-07T04:19:20.336Z,2.58
2023-01-07T04:21:47.276Z,2.08
2023-01-07T04:24:14.241Z,1.80
2023-01-07T04:26:41.058Z,1.73
2023-01-07T04:29:07.937Z,2.53
2023-01-07T04:31:35.930Z,2.13
2023-01-07T04:34:02.794Z,2.13
2023-01-07T04:36:29.609Z,2.40
2023-01-07T04:38:56.436Z,2.15
2023-01-07T04:41:23.582Z,2.13
2023-01-07T04:43:50.371Z,2.40
2023-01-07T04:46:17.225Z,2.53
2023-01-07T04:48:44.032Z,2.33
2023-01-07T04:51:10.974Z,2.45
2023-01-07T04:53:37.746Z,1.85
2023-01-07T04:56:06.475Z,2.22
2023-01-07T04:58:33.405Z,2.10
2023-01-07T05:01:03.354Z,2.28
2023-01-07T05:03:31.761Z,2.08
2023-01-07T05:05:58.579Z,2.20
2023-01-07T05:08:25.354Z,2.30
2023-01-07T05:10:53.442Z,1.70
2023-01-07T05:13:22.708Z,1.75
2023-01-07T05:15:49.975Z,1.95
2023-01-07T05:18:17.470Z,2.10
2023-01-07T05:20:44.296Z,2.00
2023-01-07T05:23:11.164Z,1.80
2023-01-07T05:25:38.072Z,1.70
2023-01-07T05:28:05.315Z,1.70
2023-01-07T05:30:32.323Z,1.90
2023-01-07T05:32:59.158Z,1.63
2023-01-07T05:35:25.997Z,1.45
2023-01-07T05:37:52.779Z,2.25
2023-01-07T05:40:19.593Z,2.40
2023-01-07T05:42:46.484Z,1.75
2023-01-07T05:45:13.343Z,2.20
2023-01-07T05:47:40.209Z,1.60
2023-01-07T05:50:07.442Z,2.13
2023-01-07T05:52:34.212Z,1.70
2023-01-07T05:55:01.052Z,1.98
2023-01-07T05:57:28.176Z,1.63
2023-01-07T05:59:54.945Z,2.25
2023-01-07T06:02:22.004Z,1.80
2023-01-07T06:04:48.879Z,1.60
2023-01-07T06:07:15.776Z,1.58
2023-01-07T06:09:42.624Z,2.10
2023-01-07T06:12:09.385Z,1.80
2023-01-07T06:14:36.150Z,1.90
2023-01-07T06:17:03.081Z,1.80
2023-01-07T06:19:29.937Z,2.22
2023-01-07T06:21:56.854Z,2.05
2023-01-07T06:24:23.627Z,2.05
2023-01-07T06:26:50.499Z,1.52
2023-01-07T06:29:18.375Z,1.85
2023-01-07T06:31:45.159Z,1.70
2023-01-07T06:34:11.953Z,1.73
2023-01-07T06:36:38.830Z,2.10
2023-01-07T06:39:05.821Z,1.95
2023-01-07T06:41:32.911Z,1.80
2023-01-07T06:43:59.785Z,2.05
2023-01-07T06:46:26.695Z,2.22
2023-01-07T06:48:53.532Z,2.05
2023-01-07T06:51:20.320Z,1.80
2023-01-07T06:53:47.148Z,1.80
2023-01-07T06:56:14.344Z,2.22
2023-01-07T06:58:41.110Z,2.67
2023-01-07T07:01:09.309Z,2.00
2023-01-07T07:03:36.282Z,1.75
2023-01-07T07:06:03.132Z,2.28
2023-01-07T07:08:30.349Z,2.13
2023-01-07T07:10:57.241Z,1.88
2023-01-07T07:13:24.070Z,2.15
2023-01-07T07:15:50.981Z,1.77
2023-01-07T07:18:18.779Z,1.50
2023-01-07T07:20:49.057Z,2.25
2023-01-07T07:23:15.943Z,2.13
2023-01-07T07:25:43.409Z,1.77
2023-01-07T07:28:10.702Z,2.25
2023-01-07T07:30:46.655Z,2.05
2023-01-07T07:33:15.578Z,1.77
2023-01-07T07:35:42.619Z,1.98
2023-01-07T07:38:09.723Z,1.83
2023-01-07T07:40:37.207Z,2.30
2023-01-07T07:43:12.352Z,2.22
2023-01-07T07:45:42.980Z,1.67
2023-01-07T07:48:13.154Z,1.80
2023-01-07T07:50:40.386Z,1.60
2023-01-07T07:53:10.442Z,1.73
2023-01-07T07:55:41.038Z,1.58
2023-01-07T07:58:08.234Z,1.50
2023-01-07T08:00:35.095Z,1.80
2023-01-07T08:03:02.322Z,1.85
2023-01-07T08:05:30.150Z,1.83
2023-01-07T08:07:58.514Z,1.88
2023-01-07T08:10:28.419Z,1.92
2023-01-07T08:12:55.232Z,1.55
2023-01-07T08:15:22.019Z,1.90
2023-01-07T08:17:48.824Z,2.17
2023-01-07T08:20:15.921Z,2.05
2023-01-07T08:22:42.743Z,2.20
2023-01-07T08:25:09.997Z,2.28
2023-01-07T08:27:36.785Z,2.40
2023-01-07T08:30:04.142Z,1.90
2023-01-07T08:32:30.977Z,1.85
2023-01-07T08:34:57.996Z,1.83
2023-01-07T08:37:24.830Z,2.28
2023-01-07T08:39:51.922Z,1.73
2023-01-07T08:42:18.720Z,2.00
2023-01-07T08:44:45.535Z,1.90
2023-01-07T08:47:12.555Z,2.38
2023-01-07T08:49:39.715Z,2.40
2023-01-07T08:52:07.095Z,2.53
2023-01-07T08:54:33.918Z,2.33
2023-01-07T08:57:00.707Z,2.40
2023-01-07T08:59:27.526Z,2.00
2023-01-07T09:01:54.791Z,1.83
2023-01-07T09:04:21.717Z,2.00
2023-01-07T09:06:48.596Z,1.83
2023-01-07T09:09:16.811Z,1.60
2023-01-07T09:11:43.945Z,2.20
2023-01-07T09:14:11.196Z,1.85
2023-01-07T09:16:38.072Z,2.05
2023-01-07T09:19:05.057Z,2.10
2023-01-07T09:21:31.813Z,2.53
2023-01-07T09:23:58.639Z,2.47
2023-01-07T09:26:25.780Z,2.83
2023-01-07T09:28:52.548Z,2.28
2023-01-07T09:31:19.532Z,2.40
2023-01-07T09:33:46.364Z,2.28
2023-01-07T09:36:13.217Z,2.30
2023-01-07T09:38:40.137Z,2.50
2023-01-07T09:41:45.111Z,2.70
2023-01-07T09:44:33.408Z,2.50
2023-01-07T09:47:01.725Z,2.60
2023-01-07T09:49:32.790Z,2.40
2023-01-07T09:52:13.963Z,2.40
2023-01-07T09:54:41.319Z,2.33
2023-01-07T09:57:15.038Z,2.20
2023-01-07T09:59:42.164Z,2.17
2023-01-07T10:02:37.857Z,1.85
2023-01-07T10:07:39.877Z,2.00
2023-01-07T10:10:26.530Z,2.40
2023-01-07T10:13:41.438Z,1.83
2023-01-07T10:16:46.501Z,2.25
2023-01-07T10:19:41.964Z,1.58
2023-01-07T10:22:30.082Z,1.80
2023-01-07T10:25:04.593Z,1.90
2023-01-07T10:27:40.993Z,2.00
2023-01-07T10:30:25.997Z,1.63
2023-01-07T10:33:17.931Z,2.13
2023-01-07T10:35:49.463Z,1.80
2023-01-07T10:38:20.378Z,1.90
2023-01-07T10:40:56.755Z,2.03
2023-01-07T10:43:38.705Z,1.42
2023-01-07T10:46:23.567Z,1.83
2023-01-07T10:49:02.371Z,1.90
2023-01-07T10:52:14.737Z,1.58
2023-01-07T10:55:46.345Z,1.60
2023-01-07T10:58:13.266Z,1.83
2023-01-07T11:00:40.984Z,1.42
2023-01-07T11:03:24.283Z,1.67
2023-01-07T11:05:57.884Z,1.48
2023-01-07T11:08:32.565Z,1.40
2023-01-07T11:10:59.678Z,1.40
2023-01-07T11:13:31.521Z,1.13
2023-01-07T11:16:12.439Z,1.40
2023-01-07T11:19:01.149Z,1.23
2023-01-07T11:21:42.571Z,1.35
2023-01-07T11:24:36.391Z,1.48
2023-01-07T11:27:32.689Z,1.52
2023-01-07T11:30:07.592Z,1.17
2023-01-07T11:32:40.848Z,1.15
2023-01-07T11:35:23.191Z,1.30
2023-01-07T11:37:50.512Z,1.10
2023-01-07T11:40:30.036Z,1.30
2023-01-07T11:43:16.174Z,1.27
2023-01-07T11:46:20.902Z,0.65
2023-01-07T11:48:47.535Z,0.55
2023-01-07T11:51:14.426Z,0.88
2023-01-07T11:53:53.712Z,0.40
2023-01-07T11:56:20.484Z,0.55
2023-01-07T11:58:51.451Z,0.60
2023-01-07T12:01:24.207Z,0.50
2023-01-07T12:03:57.278Z,0.52
2023-01-07T12:06:38.581Z,0.68
2023-01-07T12:09:20.989Z,0.70
2023-01-07T12:11:48.386Z,0.80
2023-01-07T12:14:32.976Z,0.60
2023-01-07T12:17:18.065Z,0.70
2023-01-07T12:20:09.764Z,0.65
2023-01-07T12:23:07.302Z,0.70
2023-01-07T12:26:09.072Z,0.70
2023-01-07T12:28:58.347Z,0.77
2023-01-07T12:32:00.623Z,0.70
2023-01-07T12:34:50.148Z,0.40
2023-01-07T12:37:42.752Z,0.55
2023-01-07T12:40:18.533Z,0.50
2023-01-07T12:42:57.813Z,0.73
2023-01-07T12:45:38.930Z,0.70
2023-01-07T12:48:19.112Z,0.68
2023-01-07T12:50:51.187Z,0.65
2023-01-07T12:53:50.214Z,0.50
2023-01-07T12:56:30.487Z,0.63
2023-01-07T12:59:46.633Z,0.60
2023-01-07T13:02:54.639Z,0.45
2023-01-07T13:05:27.015Z,0.45
2023-01-07T13:08:04.961Z,0.50
2023-01-07T13:10:51.971Z,0.88
2023-01-07T13:13:34.780Z,0.70
2023-01-07T13:16:02.006Z,0.50
2023-01-07T13:18:29.736Z,0.85
2023-01-07T13:21:12.960Z,0.77
2023-01-07T13:24:56.558Z,1.00
2023-01-07T13:28:07.667Z,0.80
2023-01-07T13:31:05.319Z,0.73
2023-01-07T13:33:43.606Z,0.70
2023-01-07T13:36:45.371Z,0.90
2023-01-07T13:39:26.604Z,0.80
2023-01-07T13:42:22.569Z,0.80
2023-01-07T13:45:01.897Z,0.88
2023-01-07T13:48:05.345Z,1.00
2023-01-07T13:50:39.047Z,1.30
2023-01-07T13:53:15.137Z,1.25
2023-01-07T13:55:46.172Z,1.23
2023-01-07T13:58:31.200Z,1.23
2023-01-07T14:01:11.014Z,1.23
2023-01-07T14:03:53.303Z,1.05
2023-01-07T14:06:20.537Z,1.00
2023-01-07T14:09:05.841Z,0.75
2023-01-07T14:11:32.738Z,0.98
2023-01-07T14:14:29.074Z,0.80
2023-01-07T14:17:28.279Z,1.20
2023-01-07T14:20:17.126Z,1.30
2023-01-07T14:23:08.113Z,1.48
2023-01-07T14:25:52.820Z,1.60
2023-01-07T14:29:07.875Z,0.90
2023-01-07T14:31:35.132Z,1.70
2023-01-07T14:34:07.452Z,0.85
2023-01-07T14:37:02.483Z,1.10
2023-01-07T14:39:39.917Z,1.13
2023-01-07T14:42:18.838Z,0.73
2023-01-07T14:44:52.166Z,0.82
2023-01-07T14:47:44.014Z,0.70
2023-01-07T14:50:33.205Z,0.80
2023-01-07T14:53:10.837Z,0.77
2023-01-07T14:55:51.474Z,0.60
2023-01-07T14:58:41.946Z,0.77
2023-01-07T15:01:35.817Z,0.70
2023-01-07T15:04:18.123Z,1.50
2023-01-07T15:06:46.103Z,1.00
2023-01-07T15:09:44.266Z,0.98
2023-01-07T15:12:42.924Z,0.88
2023-01-07T15:15:43.090Z,0.80
2023-01-07T15:18:11.696Z,1.05
2023-01-07T15:21:09.061Z,0.82
2023-01-07T15:23:39.307Z,0.70
2023-01-07T15:26:17.337Z,1.25
2023-01-07T15:28:53.720Z,1.10
2023-01-07T15:31:40.923Z,0.90
2023-01-07T15:34:17.707Z,1.02
2023-01-07T15:36:51.693Z,1.17
2023-01-07T15:39:30.573Z,0.95
2023-01-07T15:41:58.545Z,1.20
2023-01-07T15:44:35.685Z,1.30
2023-01-07T15:47:02.776Z,1.55
2023-01-07T15:49:30.048Z,1.00
2023-01-07T15:52:01.826Z,1.10
2023-01-07T15:54:37.460Z,0.88
2023-01-07T15:57:29.052Z,1.33
2023-01-07T15:59:57.380Z,1.08
2023-01-07T16:02:29.481Z,0.98
2023-01-07T16:05:01.064Z,1.27
2023-01-07T16:07:33.204Z,1.13
2023-01-07T16:10:00.758Z,0.93
2023-01-07T16:12:35.846Z,1.10
2023-01-07T16:15:37.655Z,0.80
2023-01-07T16:18:19.022Z,0.88
2023-01-07T16:20:58.179Z,0.70
2023-01-07T16:23:28.387Z,0.80
2023-01-07T16:26:04.148Z,0.80
2023-01-07T16:28:42.582Z,0.90
2023-01-07T16:31:13.140Z,0.80
2023-01-07T16:33:42.588Z,1.00
2023-01-07T16:36:25.238Z,0.70
2023-01-07T16:38:57.653Z,0.80
2023-01-07T16:41:28.388Z,1.10
2023-01-07T16:44:00.071Z,1.27
2023-01-07T16:46:38.503Z,1.13
2023-01-07T16:49:11.401Z,0.73
2023-01-07T16:51:53.146Z,0.95
2023-01-07T16:54:26.001Z,1.00
2023-01-07T16:56:56.956Z,1.02
2023-01-07T16:59:29.745Z,1.10
2023-01-07T17:02:00.251Z,0.85
2023-01-07T17:04:30.313Z,1.08
2023-01-07T17:07:01.213Z,0.82
2023-01-07T17:09:39.241Z,1.40
2023-01-07T17:12:06.611Z,0.63
2023-01-07T17:14:33.335Z,1.30
2023-01-07T17:17:26.332Z,1.27
2023-01-07T17:20:20.131Z,1.13
2023-01-07T17:22:47.422Z,1.10
2023-01-07T17:25:22.503Z,1.02
2023-01-07T17:28:00.294Z,1.00
2023-01-07T17:30:35.895Z,1.17
2023-01-07T17:33:03.252Z,1.35
2023-01-07T17:35:30.044Z,1.38
2023-01-07T17:37:57.394Z,1.30
2023-01-07T17:40:24.194Z,1.17
2023-01-07T17:43:09.970Z,3.25
2023-01-07T17:45:37.179Z,0.90
2023-01-07T17:48:13.754Z,0.80
2023-01-07T17:50:41.534Z,1.02
2023-01-07T17:53:23.086Z,0.90
2023-01-07T17:55:49.919Z,1.02
2023-01-07T17:58:31.675Z,0.77
2023-01-07T18:01:00.904Z,1.10
2023-01-07T18:03:28.667Z,0.60
2023-01-07T18:05:55.439Z,0.45
2023-01-07T18:08:22.310Z,0.70
2023-01-07T18:11:10.576Z,0.77
2023-01-07T18:13:37.390Z,0.68
2023-01-07T18:16:04.903Z,0.47
2023-01-07T18:18:31.967Z,0.65
2023-01-07T18:20:58.925Z,0.68
2023-01-07T18:23:26.017Z,0.60
2023-01-07T18:25:52.847Z,0.70
2023-01-07T18:28:19.657Z,0.50
2023-01-07T18:30:46.479Z,0.75
2023-01-07T18:33:13.470Z,0.85
2023-01-07T18:35:43.001Z,1.05
2023-01-07T18:38:15.645Z,0.82
2023-01-07T18:40:43.400Z,0.90
2023-01-07T18:43:18.794Z,0.80
2023-01-07T18:45:46.922Z,0.70
2023-01-07T18:48:16.984Z,0.90
2023-01-07T18:50:47.151Z,1.00
2023-01-07T18:53:15.326Z,1.40
2023-01-07T18:55:43.548Z,0.82
2023-01-07T18:58:14.263Z,1.10
2023-01-07T19:00:42.988Z,1.10
2023-01-07T19:03:11.129Z,15.57
2023-01-07T19:05:40.778Z,11.73
2023-01-07T19:08:07.593Z,2.08
2023-01-07T19:10:35.043Z,1.10
2023-01-07T19:13:01.966Z,1.33
2023-01-07T19:15:28.944Z,1.27
2023-01-07T19:17:56.101Z,1.30
2023-01-07T19:20:23.048Z,2.08
2023-01-07T19:22:49.845Z,2.00
2023-01-07T19:25:16.823Z,1.58
2023-01-07T19:27:43.706Z,2.03
2023-01-07T19:30:12.733Z,2.22
2023-01-07T19:32:39.551Z,1.75
2023-01-07T19:35:06.831Z,1.45
2023-01-07T19:37:36.880Z,1.92
2023-01-07T19:40:04.964Z,1.40
2023-01-07T19:42:33.398Z,2.00
2023-01-07T19:45:00.316Z,1.90
2023-01-07T19:47:27.239Z,1.88
2023-01-07T19:49:54.032Z,1.60
2023-01-07T19:52:21.029Z,1.92
2023-01-07T19:54:47.835Z,2.03
2023-01-07T19:57:14.707Z,2.15
2023-01-07T19:59:41.682Z,1.92
2023-01-07T20:02:10.508Z,2.30
2023-01-07T20:04:37.697Z,1.75
2023-01-07T20:07:04.487Z,2.30
2023-01-07T20:09:31.335Z,3.33
2023-01-07T20:11:58.386Z,3.08
2023-01-07T20:14:25.168Z,2.38
2023-01-07T20:16:51.975Z,2.30
2023-01-07T20:19:18.759Z,2.25
2023-01-07T20:21:46.780Z,2.78
2023-01-07T20:24:14.087Z,2.38
2023-01-07T20:26:41.797Z,2.13
2023-01-07T20:29:08.856Z,2.90
2023-01-07T20:31:35.909Z,2.90
2023-01-07T20:34:03.067Z,2.35
2023-01-07T20:36:32.204Z,2.35
2023-01-07T20:39:05.377Z,2.25
2023-01-07T20:41:34.367Z,2.20
2023-01-07T20:44:03.621Z,2.42
2023-01-07T20:46:32.339Z,3.20
2023-01-07T20:48:59.633Z,2.55
2023-01-07T20:51:27.020Z,2.95
2023-01-07T20:53:53.969Z,2.15
2023-01-07T20:56:23.541Z,2.38
2023-01-07T20:58:51.311Z,2.50
2023-01-07T21:01:21.078Z,2.33
2023-01-07T21:03:48.322Z,2.33
2023-01-07T21:06:17.755Z,2.40
2023-01-07T21:08:47.281Z,3.20
2023-01-07T21:11:21.211Z,2.70
2023-01-07T21:13:49.035Z,3.45
2023-01-07T21:16:16.231Z,2.83
2023-01-07T21:18:43.633Z,2.78
2023-01-07T21:21:14.449Z,3.10
2023-01-07T21:23:42.435Z,3.53
2023-01-07T21:26:10.324Z,3.38
2023-01-07T21:28:37.278Z,3.58
2023-01-07T21:31:09.243Z,3.17
2023-01-07T21:33:38.025Z,3.30
2023-01-07T21:36:14.923Z,3.50
2023-01-07T21:38:41.845Z,3.28
2023-01-07T21:41:14.994Z,3.30
2023-01-07T21:43:42.453Z,3.20
2023-01-07T21:46:10.173Z,9.93
2023-01-07T21:48:40.658Z,4.32
2023-01-07T21:51:13.067Z,3.10
2023-01-07T21:53:39.998Z,2.92
2023-01-07T21:56:15.905Z,3.30
2023-01-07T21:58:45.162Z,3.08
2023-01-07T22:01:13.369Z,3.45
2023-01-07T22:03:43.157Z,3.88
2023-01-07T22:06:20.445Z,3.63
2023-01-07T22:08:48.274Z,2.80
2023-01-07T22:11:17.485Z,3.03
2023-01-07T22:13:44.725Z,3.13
2023-01-07T22:16:11.738Z,3.50
2023-01-07T22:18:38.994Z,3.17
2023-01-07T22:21:06.061Z,3.03
2023-01-07T22:23:33.097Z,3.42
2023-01-07T22:26:05.540Z,3.65
2023-01-07T22:28:34.738Z,3.72
2023-01-07T22:31:10.966Z,4.57
2023-01-07T22:33:37.879Z,4.03
2023-01-07T22:36:05.425Z,3.42
2023-01-07T22:38:32.896Z,4.07
2023-01-07T22:41:01.408Z,3.47
2023-01-07T22:43:28.694Z,3.72
2023-01-07T22:46:11.904Z,4.10
2023-01-07T22:48:39.373Z,3.97
2023-01-07T22:51:13.190Z,4.38
2023-01-07T22:53:40.222Z,3.78
2023-01-07T22:56:07.784Z,4.00
2023-01-07T22:58:34.580Z,3.83
2023-01-07T23:01:04.278Z,4.72
2023-01-07T23:03:31.496Z,4.20
2023-01-07T23:05:58.413Z,4.28
2023-01-07T23:08:25.253Z,3.40
2023-01-07T23:10:52.117Z,3.95
2023-01-07T23:13:18.902Z,4.38
2023-01-07T23:15:45.939Z,4.32
2023-01-07T23:18:12.982Z,3.78
2023-01-07T23:20:42.327Z,4.15
2023-01-07T23:23:11.186Z,5.18
2023-01-07T23:25:45.141Z,3.80
2023-01-07T23:28:12.037Z,3.30
2023-01-07T23:30:38.812Z,3.42
2023-01-07T23:33:05.975Z,4.85
2023-01-07T23:35:32.884Z,3.97
2023-01-07T23:38:00.559Z,3.70
2023-01-07T23:40:27.866Z,4.40
2023-01-07T23:42:56.259Z,4.10
2023-01-07T23:45:24.402Z,4.25
2023-01-07T23:47:51.188Z,3.70
2023-01-07T23:50:18.146Z,4.95
2023-01-07T23:52:44.947Z,4.72
2023-01-07T23:55:12.361Z,4.10
2023-01-07T23:57:39.525Z,5.03
